createdAt,value
2019-02-09T00:02:31.071Z,8.60
2019-02-09T00:05:21.040Z,8.37
2019-02-09T00:08:50.427Z,8.83
2019-02-09T00:11:39.964Z,8.83
2019-02-09T00:14:29.610Z,8.10
2019-02-09T00:17:19.624Z,10.00
2019-02-09T00:20:09.904Z,8.70
2019-02-09T00:23:18.512Z,7.90
2019-02-09T00:26:08.356Z,8.10
2019-02-09T00:28:58.184Z,8.50
2019-02-09T00:31:47.698Z,8.47
2019-02-09T00:34:37.460Z,7.97
2019-02-09T00:37:27.365Z,7.80
2019-02-09T00:40:17.400Z,7.73
2019-02-09T00:43:07.140Z,7.87
2019-02-09T00:45:56.856Z,8.47
2019-02-09T00:48:46.837Z,7.83
2019-02-09T00:51:36.594Z,8.07
2019-02-09T00:54:26.425Z,8.17
2019-02-09T00:57:16.405Z,8.00
2019-02-09T01:00:48.076Z,7.77
2019-02-09T01:03:37.579Z,7.83
2019-02-09T01:06:27.415Z,8.10
2019-02-09T01:09:36.165Z,7.47
2019-02-09T01:12:26.257Z,7.50
2019-02-09T01:15:15.602Z,7.80
2019-02-09T01:21:34.405Z,7.50
2019-02-09T01:24:24.084Z,7.53
2019-02-09T01:27:33.926Z,7.87
2019-02-09T01:30:24.576Z,7.50
2019-02-09T01:33:14.073Z,7.50
2019-02-09T01:36:22.568Z,7.50
2019-02-09T01:39:12.944Z,7.60
2019-02-09T01:42:03.063Z,7.70
2019-02-09T01:44:53.684Z,7.37
2019-02-09T01:47:43.469Z,8.07
2019-02-09T01:54:03.298Z,7.30
2019-02-09T01:56:53.235Z,7.80
2019-02-09T01:59:43.016Z,7.20
2019-02-09T02:05:41.202Z,7.80
2019-02-09T02:08:30.649Z,7.60
2019-02-09T02:11:20.648Z,8.10
2019-02-09T02:14:10.478Z,8.10
2019-02-09T02:17:00.055Z,7.97
2019-02-09T02:19:50.015Z,8.00
2019-02-09T02:22:39.681Z,7.83
2019-02-09T02:25:29.736Z,8.10
2019-02-09T02:28:19.167Z,8.00
2019-02-09T02:31:09.257Z,7.53
2019-02-09T02:33:58.811Z,8.03
2019-02-09T02:36:49.109Z,7.70
2019-02-09T02:39:39.462Z,7.20
2019-02-09T02:42:48.428Z,8.03
2019-02-09T02:45:38.805Z,8.40
2019-02-09T02:48:29.745Z,9.47
2019-02-09T02:51:19.774Z,10.00
2019-02-09T02:54:28.424Z,9.30
2019-02-09T02:57:18.227Z,7.90
2019-02-09T03:00:48.911Z,9.20
2019-02-09T03:03:38.665Z,8.73
2019-02-09T03:06:28.103Z,8.00
2019-02-09T03:09:17.800Z,7.30
2019-02-09T03:12:07.883Z,6.77
2019-02-09T03:14:57.862Z,6.97
2019-02-09T03:17:48.262Z,7.47
2019-02-09T03:20:38.031Z,8.23
2019-02-09T03:23:27.845Z,6.90
2019-02-09T03:26:17.254Z,6.97
2019-02-09T03:29:06.754Z,6.43
2019-02-09T03:31:56.174Z,7.30
2019-02-09T03:34:46.426Z,7.17
2019-02-09T03:37:36.530Z,7.83
2019-02-09T03:43:42.131Z,6.87
2019-02-09T03:46:31.894Z,7.13
2019-02-09T03:49:22.377Z,7.67
2019-02-09T03:52:12.195Z,7.70
2019-02-09T03:55:01.936Z,7.90
2019-02-09T03:57:52.130Z,7.63
2019-02-09T04:00:41.640Z,6.87
2019-02-09T04:03:31.682Z,7.40
2019-02-09T04:09:50.978Z,8.40
2019-02-09T04:12:40.757Z,7.80
2019-02-09T04:15:30.209Z,9.03
2019-02-09T04:18:20.470Z,9.30
2019-02-09T04:21:09.990Z,8.90
2019-02-09T04:24:00.011Z,8.97
2019-02-09T04:26:50.280Z,8.13
2019-02-09T04:29:39.801Z,6.73
2019-02-09T04:32:29.211Z,6.27
2019-02-09T04:35:18.768Z,6.57
2019-02-09T04:38:08.606Z,6.57
2019-02-09T04:44:07.186Z,5.83
2019-02-09T04:46:57.167Z,6.37
2019-02-09T04:49:46.706Z,6.40
2019-02-09T04:52:36.818Z,6.13
2019-02-09T04:55:26.519Z,6.10
2019-02-09T04:58:16.894Z,5.90
2019-02-09T05:01:13.775Z,5.90
2019-02-09T05:03:58.234Z,6.10
2019-02-09T05:06:48.737Z,6.10
2019-02-09T05:09:38.409Z,5.87
2019-02-09T05:12:28.178Z,5.80
2019-02-09T05:15:57.372Z,5.60
2019-02-09T05:18:47.893Z,5.43
2019-02-09T05:21:37.312Z,6.80
2019-02-09T05:24:27.425Z,6.60
2019-02-09T05:27:16.617Z,6.00
2019-02-09T05:30:08.323Z,6.00
2019-02-09T05:33:37.425Z,5.60
2019-02-09T05:36:27.440Z,5.83
2019-02-09T05:39:16.763Z,5.40
2019-02-09T05:42:25.800Z,5.90
2019-02-09T05:48:50.507Z,5.30
2019-02-09T05:51:40.178Z,5.10
2019-02-09T05:54:30.180Z,5.30
2019-02-09T05:57:20.268Z,5.20
2019-02-09T06:00:25.474Z,5.13
2019-02-09T06:03:15.496Z,5.10
2019-02-09T06:06:44.872Z,5.10
2019-02-09T06:09:35.179Z,5.67
2019-02-09T06:12:25.402Z,5.20
2019-02-09T06:19:04.257Z,5.60
2019-02-09T06:21:54.207Z,5.50
2019-02-09T06:24:45.329Z,5.70
2019-02-09T06:27:35.591Z,5.50
2019-02-09T06:30:26.837Z,5.20
2019-02-09T06:33:14.423Z,5.03
2019-02-09T06:36:04.254Z,4.80
2019-02-09T06:39:13.670Z,5.47
2019-02-09T06:42:03.704Z,6.20
2019-02-09T06:44:53.386Z,5.87
2019-02-09T06:47:43.768Z,5.60
2019-02-09T06:50:34.158Z,5.10
2019-02-09T06:53:23.855Z,4.90
2019-02-09T06:56:13.428Z,4.77
2019-02-09T06:59:02.901Z,4.47
2019-02-09T07:01:52.706Z,4.37
2019-02-09T07:04:42.402Z,4.90
2019-02-09T07:07:32.143Z,4.73
2019-02-09T07:10:42.130Z,4.73
2019-02-09T07:13:31.710Z,4.87
2019-02-09T07:16:21.229Z,4.80
2019-02-09T07:19:10.738Z,4.70
2019-02-09T07:22:00.569Z,4.60
2019-02-09T07:24:50.471Z,4.40
2019-02-09T07:27:40.432Z,4.80
2019-02-09T07:30:30.358Z,4.60
2019-02-09T07:33:20.225Z,4.70
2019-02-09T07:36:09.781Z,4.50
2019-02-09T07:38:59.660Z,4.70
2019-02-09T07:41:49.231Z,4.67
2019-02-09T07:44:39.523Z,4.50
2019-02-09T07:47:29.510Z,4.47
2019-02-09T07:50:20.632Z,4.30
2019-02-09T07:53:10.328Z,4.50
2019-02-09T07:56:19.647Z,4.10
2019-02-09T07:59:09.103Z,4.33
2019-02-09T08:02:04.448Z,4.30
2019-02-09T08:05:10.175Z,4.30
2019-02-09T08:08:39.288Z,4.17
2019-02-09T08:11:29.887Z,4.47
2019-02-09T08:14:20.261Z,4.40
2019-02-09T08:17:10.156Z,4.40
2019-02-09T08:19:59.914Z,4.47
2019-02-09T08:22:49.921Z,4.10
2019-02-09T08:29:08.725Z,4.17
2019-02-09T08:31:58.974Z,4.30
2019-02-09T08:35:07.543Z,4.57
2019-02-09T08:37:57.337Z,4.30
2019-02-09T08:40:46.954Z,4.10
2019-02-09T08:43:36.774Z,3.90
2019-02-09T08:46:27.329Z,3.90
2019-02-09T08:49:17.624Z,4.30
2019-02-09T08:52:07.737Z,4.10
2019-02-09T08:54:58.165Z,4.27
2019-02-09T08:57:47.850Z,6.43
2019-02-09T09:00:56.634Z,4.43
2019-02-09T09:03:46.617Z,4.10
2019-02-09T09:06:36.624Z,4.20
2019-02-09T09:09:45.720Z,4.23
2019-02-09T09:12:35.241Z,4.20
2019-02-09T09:15:28.080Z,4.33
2019-02-09T09:18:18.344Z,4.10
2019-02-09T09:21:08.762Z,3.90
2019-02-09T09:23:58.245Z,4.23
2019-02-09T09:26:48.258Z,3.97
2019-02-09T09:29:38.390Z,3.80
2019-02-09T09:32:28.966Z,4.10
2019-02-09T09:35:20.055Z,3.77
2019-02-09T09:38:09.882Z,3.97
2019-02-09T09:41:00.018Z,3.90
2019-02-09T09:43:49.445Z,3.90
2019-02-09T09:46:58.030Z,4.10
2019-02-09T09:49:48.095Z,4.30
2019-02-09T09:52:38.002Z,3.73
2019-02-09T09:55:28.123Z,4.20
2019-02-09T09:58:18.283Z,4.30
2019-02-09T10:01:08.390Z,3.97
2019-02-09T10:03:57.462Z,3.93
2019-02-09T10:06:47.636Z,3.77
2019-02-09T10:09:37.903Z,3.70
2019-02-09T10:12:27.666Z,3.87
2019-02-09T10:15:57.663Z,4.27
2019-02-09T10:18:47.422Z,4.00
2019-02-09T10:21:36.842Z,3.73
2019-02-09T10:24:27.391Z,4.07
2019-02-09T10:27:16.997Z,3.87
2019-02-09T10:30:26.762Z,3.60
2019-02-09T10:33:17.729Z,4.60
2019-02-09T10:36:08.226Z,4.30
2019-02-09T10:38:59.131Z,3.63
2019-02-09T10:41:47.066Z,3.90
2019-02-09T10:44:36.481Z,3.73
2019-02-09T10:47:26.575Z,3.93
2019-02-09T10:50:57.177Z,3.40
2019-02-09T10:53:47.537Z,9.07
2019-02-09T10:56:37.297Z,3.93
2019-02-09T10:59:27.551Z,3.57
2019-02-09T11:02:16.488Z,3.43
2019-02-09T11:05:45.625Z,3.20
2019-02-09T11:08:35.403Z,3.60
2019-02-09T11:11:24.922Z,4.03
2019-02-09T11:14:15.218Z,3.70
2019-02-09T11:17:05.133Z,3.67
2019-02-09T11:19:55.381Z,3.37
2019-02-09T11:22:45.280Z,3.50
2019-02-09T11:25:34.766Z,3.40
2019-02-09T11:28:24.989Z,3.10
2019-02-09T11:31:14.421Z,3.50
2019-02-09T11:37:19.680Z,3.50
2019-02-09T11:40:09.966Z,4.03
2019-02-09T11:46:34.777Z,3.70
2019-02-09T11:49:24.244Z,3.60
2019-02-09T11:52:14.537Z,3.57
2019-02-09T11:55:02.435Z,3.63
2019-02-09T12:01:06.465Z,3.90
2019-02-09T12:03:55.889Z,3.83
2019-02-09T12:06:45.574Z,3.37
2019-02-09T12:09:35.362Z,3.83
2019-02-09T12:12:25.104Z,3.90
2019-02-09T12:15:35.458Z,3.43
2019-02-09T12:18:25.547Z,3.53
2019-02-09T12:21:15.038Z,3.80
2019-02-09T12:24:23.610Z,3.77
2019-02-09T12:27:13.414Z,3.63
2019-02-09T12:30:03.505Z,3.53
2019-02-09T12:32:53.399Z,3.77
2019-02-09T12:36:22.493Z,3.80
2019-02-09T12:39:12.249Z,3.67
2019-02-09T12:42:02.178Z,3.80
2019-02-09T12:44:52.190Z,3.80
2019-02-09T12:47:41.674Z,4.00
2019-02-09T12:51:11.633Z,3.70
2019-02-09T12:54:02.768Z,3.70
2019-02-09T12:56:53.305Z,3.37
2019-02-09T12:59:43.234Z,3.83
2019-02-09T13:02:33.042Z,3.33
2019-02-09T13:05:22.842Z,3.80
2019-02-09T13:08:12.405Z,3.40
2019-02-09T13:11:22.028Z,3.70
2019-02-09T13:14:12.086Z,4.17
2019-02-09T13:17:02.852Z,4.40
2019-02-09T13:19:52.856Z,3.93
2019-02-09T13:22:42.371Z,3.60
2019-02-09T13:25:51.859Z,3.73
2019-02-09T13:28:41.846Z,5.00
2019-02-09T13:31:31.554Z,3.60
2019-02-09T13:34:20.989Z,4.43
2019-02-09T13:37:10.978Z,4.17
2019-02-09T13:40:00.763Z,4.00
2019-02-09T13:46:19.896Z,3.80
2019-02-09T13:49:10.046Z,4.03
2019-02-09T13:51:59.819Z,3.60
2019-02-09T13:54:49.239Z,3.70
2019-02-09T13:57:38.967Z,4.00
2019-02-09T14:01:08.085Z,3.77
2019-02-09T14:03:57.864Z,3.87
2019-02-09T14:06:47.731Z,3.60
2019-02-09T14:09:37.530Z,4.10
2019-02-09T14:12:47.165Z,3.60
2019-02-09T14:15:37.055Z,3.50
2019-02-09T14:18:27.231Z,3.70
2019-02-09T14:21:16.937Z,4.27
2019-02-09T14:24:06.888Z,3.70
2019-02-09T14:26:57.079Z,3.60
2019-02-09T14:29:47.268Z,3.70
2019-02-09T14:32:37.284Z,3.33
2019-02-09T14:38:56.790Z,3.73
2019-02-09T14:41:46.735Z,3.57
2019-02-09T14:44:36.566Z,4.10
2019-02-09T14:50:35.540Z,4.00
2019-02-09T14:53:25.631Z,3.70
2019-02-09T14:56:15.340Z,3.57
2019-02-09T14:59:05.098Z,3.57
2019-02-09T15:01:55.730Z,3.67
2019-02-09T15:05:05.334Z,3.90
2019-02-09T15:07:55.170Z,3.87
2019-02-09T15:11:04.231Z,5.17
2019-02-09T15:13:56.624Z,4.20
2019-02-09T15:16:49.877Z,5.70
2019-02-09T15:19:41.404Z,4.30
2019-02-09T15:22:32.056Z,3.80
2019-02-09T15:25:22.002Z,3.77
2019-02-09T15:28:12.851Z,3.70
2019-02-09T15:31:02.369Z,4.03
2019-02-09T15:33:52.107Z,3.60
2019-02-09T15:36:43.129Z,3.70
2019-02-09T15:39:32.750Z,3.50
2019-02-09T15:42:22.275Z,3.90
2019-02-09T15:45:13.485Z,4.60
2019-02-09T15:48:03.338Z,3.87
2019-02-09T15:50:53.451Z,4.70
2019-02-09T15:53:43.404Z,3.93
2019-02-09T15:56:33.136Z,4.30
2019-02-09T15:59:23.251Z,4.13
2019-02-09T16:02:13.205Z,4.00
2019-02-09T16:05:22.341Z,4.03
2019-02-09T16:11:22.861Z,4.13
2019-02-09T16:14:12.891Z,4.33
2019-02-09T16:17:03.148Z,4.60
2019-02-09T16:19:53.445Z,4.47
2019-02-09T16:22:42.870Z,4.20
2019-02-09T16:25:32.670Z,4.17
2019-02-09T16:28:22.380Z,3.77
2019-02-09T16:31:12.009Z,4.03
2019-02-09T16:34:01.871Z,4.40
2019-02-09T16:36:52.196Z,4.50
2019-02-09T16:39:41.624Z,4.10
2019-02-09T16:42:31.057Z,3.90
2019-02-09T16:45:39.822Z,3.90
2019-02-09T16:48:29.987Z,3.90
2019-02-09T16:51:39.091Z,4.30
2019-02-09T16:54:29.107Z,4.20
2019-02-09T16:57:19.008Z,4.67
2019-02-09T17:00:11.021Z,4.23
2019-02-09T17:02:59.648Z,4.60
2019-02-09T17:05:49.998Z,4.23
2019-02-09T17:08:40.131Z,4.43
2019-02-09T17:11:30.421Z,4.03
2019-02-09T17:14:19.840Z,4.33
2019-02-09T17:17:09.621Z,4.13
2019-02-09T17:19:59.688Z,4.70
2019-02-09T17:22:49.845Z,4.67
2019-02-09T17:25:39.863Z,4.13
2019-02-09T17:28:29.765Z,4.77
2019-02-09T17:31:19.631Z,4.47
2019-02-09T17:34:09.689Z,4.53
2019-02-09T17:37:01.088Z,4.57
2019-02-09T17:39:50.907Z,4.40
2019-02-09T17:42:41.030Z,4.40
2019-02-09T17:45:37.027Z,5.30
2019-02-09T17:48:27.473Z,4.93
2019-02-09T17:51:18.653Z,4.90
2019-02-09T17:54:08.991Z,4.40
2019-02-09T17:56:58.944Z,4.73
2019-02-09T17:59:48.636Z,4.63
2019-02-09T18:02:38.171Z,4.33
2019-02-09T18:05:29.153Z,4.40
2019-02-09T18:08:18.692Z,4.40
2019-02-09T18:11:08.446Z,4.50
2019-02-09T18:13:58.393Z,4.70
2019-02-09T18:16:48.649Z,4.37
2019-02-09T18:19:38.635Z,4.63
2019-02-09T18:22:28.450Z,4.40
2019-02-09T18:25:18.834Z,4.50
2019-02-09T18:28:08.343Z,6.33
2019-02-09T18:30:57.815Z,4.60
2019-02-09T18:33:47.852Z,4.63
2019-02-09T18:36:37.636Z,4.57
2019-02-09T18:39:27.072Z,4.53
2019-02-09T18:42:17.172Z,5.20
2019-02-09T18:45:07.507Z,5.70
2019-02-09T18:47:57.925Z,4.80
2019-02-09T18:50:47.631Z,4.70
2019-02-09T18:53:37.483Z,4.30
2019-02-09T18:56:27.176Z,4.30
2019-02-09T18:59:16.878Z,4.50
2019-02-09T19:05:36.029Z,4.50
2019-02-09T19:08:25.778Z,4.30
2019-02-09T19:11:16.400Z,4.27
2019-02-09T19:14:06.069Z,4.50
2019-02-09T19:16:55.832Z,4.40
2019-02-09T19:19:45.621Z,4.30
2019-02-09T19:22:54.477Z,4.30
2019-02-09T19:25:44.416Z,4.20
2019-02-09T19:28:33.938Z,4.63
2019-02-09T19:31:24.228Z,4.77
2019-02-09T19:34:13.962Z,4.47
2019-02-09T19:37:04.074Z,4.37
2019-02-09T19:39:53.995Z,4.20
2019-02-09T19:43:23.594Z,4.27
2019-02-09T19:46:14.087Z,3.90
2019-02-09T19:49:04.294Z,4.23
2019-02-09T19:51:54.423Z,4.10
2019-02-09T19:54:44.998Z,4.47
2019-02-09T19:57:34.859Z,4.63
2019-02-09T20:00:29.762Z,4.87
2019-02-09T20:03:19.280Z,4.50
2019-02-09T20:06:08.858Z,4.20
2019-02-09T20:08:58.321Z,4.67
2019-02-09T20:11:48.161Z,4.50
2019-02-09T20:14:38.189Z,4.67
2019-02-09T20:17:27.618Z,4.40
2019-02-09T20:23:32.553Z,5.30
2019-02-09T20:26:22.292Z,4.23
2019-02-09T20:29:12.111Z,4.00
2019-02-09T20:34:56.993Z,4.33
2019-02-09T20:37:46.573Z,4.07
2019-02-09T20:40:57.587Z,4.07
2019-02-09T20:43:46.989Z,4.00
2019-02-09T20:46:36.745Z,4.30
2019-02-09T20:49:45.710Z,4.67
2019-02-09T20:52:54.565Z,3.90
2019-02-09T20:55:44.453Z,4.30
2019-02-09T20:58:34.761Z,4.37
2019-02-09T21:01:24.831Z,4.30
2019-02-09T21:04:14.351Z,4.23
2019-02-09T21:07:04.420Z,4.20
2019-02-09T21:09:54.375Z,4.97
2019-02-09T21:12:44.482Z,4.73
2019-02-09T21:19:03.267Z,4.87
2019-02-09T21:21:52.708Z,4.87
2019-02-09T21:24:42.396Z,4.60
2019-02-09T21:27:32.058Z,4.50
2019-02-09T21:30:22.674Z,4.40
2019-02-09T21:33:12.184Z,6.17
2019-02-09T21:36:01.624Z,4.87
2019-02-09T21:38:51.588Z,4.33
2019-02-09T21:41:41.399Z,4.20
2019-02-09T21:44:31.050Z,4.10
2019-02-09T21:47:20.742Z,4.57
2019-02-09T21:50:30.747Z,4.77
2019-02-09T21:53:20.191Z,5.30
2019-02-09T21:56:10.110Z,5.10
2019-02-09T21:58:59.930Z,4.70
2019-02-09T22:01:50.713Z,4.83
2019-02-09T22:04:40.509Z,4.90
2019-02-09T22:07:30.478Z,4.70
2019-02-09T22:10:29.050Z,4.23
2019-02-09T22:16:42.687Z,4.60
2019-02-09T22:19:32.645Z,4.83
2019-02-09T22:22:22.348Z,4.90
2019-02-09T22:25:15.056Z,5.20
2019-02-09T22:28:05.320Z,5.13
2019-02-09T22:30:55.812Z,5.00
2019-02-09T22:33:45.515Z,5.50
2019-02-09T22:36:37.302Z,7.37
2019-02-09T22:39:26.372Z,5.13
2019-02-09T22:42:16.111Z,6.60
2019-02-09T22:45:45.929Z,7.07
2019-02-09T22:48:54.699Z,10.77
2019-02-09T22:51:44.562Z,9.53
2019-02-09T22:54:34.295Z,11.13
2019-02-09T22:57:24.712Z,8.40
2019-02-09T23:04:39.691Z,6.13
2019-02-09T23:07:31.689Z,5.67
2019-02-09T23:10:21.118Z,5.40
2019-02-09T23:13:10.623Z,5.70
2019-02-09T23:16:00.971Z,5.47
2019-02-09T23:18:50.464Z,5.50
2019-02-09T23:21:39.893Z,5.63
2019-02-09T23:24:29.675Z,5.00
2019-02-09T23:27:19.098Z,5.03
2019-02-09T23:30:11.722Z,5.30
2019-02-09T23:33:01.493Z,5.20
2019-02-09T23:35:51.003Z,5.77
2019-02-09T23:38:40.671Z,6.00
2019-02-09T23:41:30.422Z,6.00
2019-02-09T23:44:19.878Z,5.40
2019-02-09T23:47:09.963Z,5.67
2019-02-09T23:50:40.280Z,5.60
2019-02-09T23:56:58.714Z,5.60
2019-02-09T23:59:48.420Z,5.47
